createdAt,value
2016-11-19T00:03:50.907Z,0
2016-11-19T00:08:55.640Z,0
2016-11-19T00:13:59.740Z,0
2016-11-19T00:19:03.840Z,0
2016-11-19T00:24:07.930Z,0
2016-11-19T00:29:12.357Z,0
2016-11-19T00:34:16.446Z,0
2016-11-19T00:39:20.529Z,0
2016-11-19T00:44:24.618Z,0
2016-11-19T00:49:29.047Z,0
2016-11-19T00:54:33.138Z,0
2016-11-19T00:59:37.226Z,0
2016-11-19T01:04:41.320Z,0
2016-11-19T01:09:45.734Z,0
2016-11-19T01:14:50.499Z,0
2016-11-19T01:19:54.597Z,0
2016-11-19T01:24:58.684Z,0
2016-11-19T01:30:02.776Z,0
2016-11-19T01:35:07.529Z,0
2016-11-19T01:40:11.959Z,0
2016-11-19T01:45:16.383Z,0
2016-11-19T01:50:20.466Z,0
2016-11-19T01:55:24.556Z,0
2016-11-19T02:00:28.644Z,0
2016-11-19T02:05:33.067Z,0
2016-11-19T02:10:37.150Z,0
2016-11-19T02:15:41.235Z,0
2016-11-19T02:20:45.324Z,0
2016-11-19T02:25:49.421Z,0
2016-11-19T02:30:53.508Z,0
2016-11-19T02:35:57.920Z,0
2016-11-19T02:41:02.350Z,0
2016-11-19T02:46:06.436Z,0
2016-11-19T02:51:10.851Z,0
2016-11-19T02:56:14.934Z,0
2016-11-19T03:01:19.017Z,0
2016-11-19T03:06:23.782Z,0
2016-11-19T03:11:28.197Z,0
2016-11-19T03:16:32.612Z,0
2016-11-19T03:21:36.696Z,0
2016-11-19T03:26:41.450Z,0
2016-11-19T03:31:45.865Z,0
2016-11-19T03:36:49.955Z,0
2016-11-19T03:41:54.041Z,0
2016-11-19T03:46:58.457Z,0
2016-11-19T03:52:02.544Z,0
2016-11-19T03:57:06.956Z,0
2016-11-19T04:02:11.372Z,0
2016-11-19T04:07:15.458Z,0
2016-11-19T04:12:19.545Z,0
2016-11-19T04:17:23.628Z,0
2016-11-19T04:22:28.053Z,0
2016-11-19T04:27:32.137Z,0
2016-11-19T04:32:36.219Z,0
2016-11-19T04:37:40.640Z,0
2016-11-19T04:42:45.059Z,0
2016-11-19T04:47:49.486Z,0
2016-11-19T04:52:53.904Z,0
2016-11-19T04:57:57.989Z,0
2016-11-19T05:03:02.410Z,0
2016-11-19T05:08:06.504Z,0
2016-11-19T05:13:10.941Z,0
2016-11-19T05:18:15.369Z,0
2016-11-19T05:23:19.792Z,0
2016-11-19T05:28:24.220Z,0
2016-11-19T05:33:28.303Z,0
2016-11-19T05:38:32.733Z,0
2016-11-19T05:43:37.157Z,0
2016-11-19T05:48:41.242Z,0
2016-11-19T05:53:45.326Z,0
2016-11-19T05:58:49.416Z,0
2016-11-19T06:03:53.510Z,0
2016-11-19T06:08:57.593Z,0
2016-11-19T06:14:01.682Z,0
2016-11-19T06:19:06.436Z,0
2016-11-19T06:24:10.518Z,0
2016-11-19T06:29:14.615Z,0
2016-11-19T06:34:18.709Z,0
2016-11-19T06:39:23.122Z,0
2016-11-19T06:44:27.209Z,0
2016-11-19T06:49:31.298Z,0
2016-11-19T06:54:35.724Z,0
2016-11-19T06:59:39.810Z,0
2016-11-19T07:04:44.576Z,0
2016-11-19T07:09:48.664Z,0
2016-11-19T07:14:52.744Z,0
2016-11-19T07:19:56.833Z,0
2016-11-19T07:25:01.261Z,0
2016-11-19T07:30:05.343Z,0
2016-11-19T07:35:09.763Z,0
2016-11-19T07:40:14.198Z,0
2016-11-19T07:45:18.280Z,0
2016-11-19T07:50:23.039Z,1
2016-11-19T07:55:27.121Z,0
2016-11-19T08:00:31.881Z,1
2016-11-19T08:05:35.971Z,1
2016-11-19T08:10:40.055Z,1
2016-11-19T08:15:44.481Z,1
2016-11-19T08:20:48.573Z,1
2016-11-19T08:25:52.668Z,2
2016-11-19T08:30:56.755Z,3
2016-11-19T08:36:01.179Z,3
2016-11-19T08:41:05.295Z,2
2016-11-19T08:46:09.731Z,2
2016-11-19T08:51:13.827Z,2
2016-11-19T08:56:17.910Z,3
2016-11-19T09:01:22.019Z,3
2016-11-19T09:06:26.488Z,2
2016-11-19T09:11:30.924Z,3
2016-11-19T09:16:35.014Z,3
2016-11-19T09:21:39.109Z,2
2016-11-19T09:26:43.206Z,2
2016-11-19T09:31:48.305Z,3
2016-11-19T09:36:52.398Z,5
2016-11-19T09:41:56.489Z,5
2016-11-19T09:47:00.580Z,6
2016-11-19T09:52:04.675Z,5
2016-11-19T09:57:09.467Z,6
2016-11-19T10:02:13.560Z,6
2016-11-19T10:07:18.006Z,4
2016-11-19T10:12:22.432Z,7
2016-11-19T10:17:26.984Z,5
2016-11-19T10:22:31.406Z,6
2016-11-19T10:27:35.514Z,4
2016-11-19T10:32:39.944Z,6
2016-11-19T10:37:44.047Z,5
2016-11-19T10:42:48.485Z,3
2016-11-19T10:47:52.914Z,3
2016-11-19T10:52:57.676Z,3
2016-11-19T10:58:02.108Z,3
2016-11-19T11:03:06.539Z,3
2016-11-19T11:08:10.643Z,5
2016-11-19T11:13:15.080Z,3
2016-11-19T11:18:19.841Z,3
2016-11-19T11:23:24.285Z,3
2016-11-19T11:28:28.822Z,6
2016-11-19T11:33:32.954Z,4
2016-11-19T11:38:37.380Z,8
2016-11-19T11:43:41.490Z,4
2016-11-19T11:48:45.592Z,3
2016-11-19T11:53:50.362Z,4
2016-11-19T11:58:54.794Z,4
2016-11-19T12:03:59.101Z,3
2016-11-19T12:09:03.194Z,2
2016-11-19T12:14:07.965Z,2
2016-11-19T12:19:12.384Z,3
2016-11-19T12:24:17.153Z,4
2016-11-19T12:29:21.940Z,10
2016-11-19T12:34:26.366Z,9
2016-11-19T12:39:31.133Z,6
2016-11-19T12:44:35.588Z,7
2016-11-19T12:49:39.681Z,8
2016-11-19T12:54:43.770Z,7
2016-11-19T12:59:47.864Z,8
2016-11-19T13:04:52.632Z,5
2016-11-19T13:09:56.727Z,6
2016-11-19T13:15:00.823Z,7
2016-11-19T13:20:04.911Z,7
2016-11-19T13:25:09.339Z,3
2016-11-19T13:30:13.431Z,2
2016-11-19T13:35:17.856Z,2
2016-11-19T13:40:22.637Z,2
2016-11-19T13:45:27.065Z,1
2016-11-19T13:50:31.157Z,0
2016-11-19T13:55:35.942Z,0
2016-11-19T14:00:40.069Z,0
2016-11-19T14:05:45.144Z,0
2016-11-19T14:10:49.252Z,0
2016-11-19T14:15:53.682Z,0
2016-11-19T14:20:57.787Z,1
2016-11-19T14:26:02.215Z,0
2016-11-19T14:31:06.307Z,0
2016-11-19T14:36:10.404Z,0
2016-11-19T14:41:14.506Z,0
2016-11-19T14:46:19.274Z,0
2016-11-19T14:51:23.699Z,0
2016-11-19T14:56:27.797Z,0
2016-11-19T15:01:32.225Z,0
2016-11-19T15:06:36.311Z,0
2016-11-19T15:11:40.739Z,0
2016-11-19T15:16:45.197Z,0
2016-11-19T15:21:49.624Z,0
2016-11-19T15:26:53.711Z,0
2016-11-19T15:31:57.810Z,0
2016-11-19T15:37:02.236Z,0
2016-11-19T15:42:06.322Z,0
2016-11-19T15:47:10.414Z,0
2016-11-19T15:52:14.504Z,0
2016-11-19T15:57:18.595Z,0
2016-11-19T16:02:22.687Z,0
2016-11-19T16:07:26.786Z,0
2016-11-19T16:12:31.551Z,0
2016-11-19T16:17:35.643Z,0
2016-11-19T16:22:39.737Z,0
2016-11-19T16:27:44.507Z,0
2016-11-19T16:32:48.943Z,0
2016-11-19T16:37:53.705Z,0
2016-11-19T16:42:58.464Z,0
2016-11-19T16:48:03.227Z,0
2016-11-19T16:53:07.312Z,0
2016-11-19T16:58:11.513Z,0
2016-11-19T17:03:15.530Z,0
2016-11-19T17:08:19.637Z,0
2016-11-19T17:13:23.739Z,0
2016-11-19T17:18:27.828Z,0
2016-11-19T17:23:31.923Z,0
2016-11-19T17:28:36.010Z,0
2016-11-19T17:33:40.770Z,0
2016-11-19T17:38:44.860Z,0
2016-11-19T17:43:48.951Z,0
2016-11-19T17:48:53.042Z,0
2016-11-19T17:53:57.150Z,0
2016-11-19T17:59:01.245Z,0
2016-11-19T18:04:05.342Z,0
2016-11-19T18:09:09.432Z,0
2016-11-19T18:14:13.520Z,0
2016-11-19T18:19:17.957Z,0
2016-11-19T18:24:22.076Z,0
2016-11-19T18:29:26.516Z,0
2016-11-19T18:34:31.280Z,0
2016-11-19T18:39:35.388Z,0
2016-11-19T18:44:39.803Z,0
2016-11-19T18:49:44.558Z,0
2016-11-19T18:54:48.991Z,0
2016-11-19T18:59:53.419Z,0
2016-11-19T19:04:57.516Z,0
2016-11-19T19:10:01.604Z,0
2016-11-19T19:15:05.685Z,0
2016-11-19T19:20:10.124Z,0
2016-11-19T19:25:14.216Z,0
2016-11-19T19:30:18.300Z,0
2016-11-19T19:35:22.721Z,0
2016-11-19T19:40:27.148Z,0
2016-11-19T19:45:31.239Z,0
2016-11-19T19:50:35.323Z,0
2016-11-19T19:55:39.752Z,0
2016-11-19T20:00:43.843Z,0
2016-11-19T20:05:48.268Z,0
2016-11-19T20:10:52.359Z,0
2016-11-19T20:15:56.780Z,0
2016-11-19T20:21:01.202Z,0
2016-11-19T20:26:05.641Z,0
2016-11-19T20:31:09.729Z,0
2016-11-19T20:36:14.487Z,0
2016-11-19T20:41:18.570Z,0
2016-11-19T20:46:23.367Z,0
2016-11-19T20:51:27.432Z,0
2016-11-19T20:56:31.860Z,0
2016-11-19T21:01:35.948Z,0
2016-11-19T21:06:40.041Z,0
2016-11-19T21:11:44.139Z,0
2016-11-19T21:16:48.233Z,0
2016-11-19T21:21:52.321Z,0
2016-11-19T21:26:56.755Z,0
2016-11-19T21:32:01.186Z,0
2016-11-19T21:37:06.182Z,0
2016-11-19T21:42:10.631Z,0
2016-11-19T21:47:15.393Z,0
2016-11-19T21:52:19.484Z,0
2016-11-19T21:57:23.580Z,0
2016-11-19T22:02:27.999Z,0
2016-11-19T22:07:32.086Z,0
2016-11-19T22:12:36.170Z,0
2016-11-19T22:17:40.597Z,0
2016-11-19T22:22:45.030Z,0
2016-11-19T22:27:49.455Z,0
2016-11-19T22:32:53.874Z,0
2016-11-19T22:37:57.959Z,0
2016-11-19T22:43:02.379Z,0
2016-11-19T22:48:07.139Z,0
2016-11-19T22:53:11.237Z,0
2016-11-19T22:58:15.320Z,0
2016-11-19T23:03:19.407Z,0
2016-11-19T23:08:23.839Z,0
2016-11-19T23:13:27.928Z,0
2016-11-19T23:18:32.020Z,0
2016-11-19T23:23:36.103Z,0
2016-11-19T23:28:40.187Z,0
2016-11-19T23:33:44.273Z,0
2016-11-19T23:38:48.363Z,0
2016-11-19T23:43:52.448Z,0
2016-11-19T23:48:56.532Z,0
2016-11-19T23:54:00.967Z,0
2016-11-19T23:59:05.053Z,0
